Sedgwick Reserve, California Weather observations

Data are for 10 minute period ending at time listed.
 Day   Time   Solar   Ave.   Ave.  Ave.  Vector  Max.   Baro.   Total    
  of    of     Rad.   Air    Rel.  Wind   Wind   Wind  Press.  Precip.   
Year   Day            Temp.  Hum.  Speed  Dir.   Gust                    
2026   (PST)  Kw/m2    F      %     mph   deg.    mph    mb.     in.     
-------------------------------------------------------------------------
 121   21:30   0.00   52.2    95    1.8   147     3.4   973.6    0.00 
 121   21:40   0.00   51.9    95    0.7   102     2.0   973.6    0.00 
 121   21:50   0.00   51.8    96    0.0     0     0.0   973.7    0.00 
 121   22:00   0.00   51.4    95    1.6    20     2.7   973.7    0.00 
 121   22:10   0.00   50.8    96    1.9    20     2.8   973.7    0.00 
 121   22:20   0.00   51.2    96    2.6    14     3.2   973.7    0.00 
 121   22:30   0.00   51.6    96    2.3     7     3.5   973.6    0.00 
 121   22:40   0.00   52.0    96    2.4    19     3.2   973.6    0.00 
 121   22:50   0.00   52.1    97    1.4     0     2.5   973.6    0.00 
 121   23:00   0.00   52.1    97    0.7     4     1.5   973.5    0.00 
 121   23:10   0.00   52.1    98    0.2   243     1.2   973.4    0.00 
 121   23:20   0.00   52.2    98    0.6    44     2.2   973.3    0.00 
 121   23:30   0.00   52.1    98    1.5    38     2.3   973.3    0.00 
 121   23:40   0.00   52.0    98    2.8    27     4.1   973.1    0.00 
 121   23:50   0.00   51.5    98    3.3    19     4.5   973.0    0.00 
 122    0:00   0.00   50.5    98    2.7     3     4.2   972.9    0.00 
 122    0:10   0.00   50.4    99    1.4   355     2.3   972.8    0.00 
 122    0:20   0.00   50.3    99    1.8   359     2.8   972.7    0.00 
 122    0:30   0.00   50.4    99    0.9     5     2.6   972.7    0.00 
 122    0:40   0.00   50.3    99    1.9    13     3.2   972.7    0.00 
 122    0:50   0.00   49.9    99    2.9   337     5.3   972.7    0.00 
 122    1:00   0.00   49.7   100    2.6   358     5.2   972.7    0.00 
 122    1:10   0.00   49.5   100    3.0   345     4.7   972.6    0.00 
 122    1:20   0.00   49.8   100    1.7   265     3.0   972.6    0.00 
 122    1:30   0.00   50.0   100    0.7    26     2.5   972.6    0.00 
 122    1:40   0.00   50.1   100    1.5    40     2.5   972.6    0.00 
 122    1:50   0.00   50.0   100    3.2    21     4.2   972.6    0.00 
 122    2:00   0.00   49.9   100    3.0    27     4.0   972.6    0.00 
 122    2:10   0.00   49.9   100    2.5    13     3.7   972.7    0.00 
 122    2:20   0.00   49.9   100    3.7    23     5.3   972.6    0.00 
 122    2:30   0.00   50.0   100    3.4    19     4.7   972.7    0.00 
 122    2:40   0.00   50.0   100    3.4    21     4.5   972.8    0.00 
 122    2:50   0.00   50.0   100    4.7    20     6.0   972.8    0.00 
 122    3:00   0.00   50.2   100    3.4     6     5.7   972.8    0.00 
 122    3:10   0.00   50.3   100    2.7     3     4.3   972.8    0.00 
 122    3:20   0.00   50.3   100    3.6    21     4.7   972.9    0.00 
 122    3:30   0.00   50.4   100    2.6    16     3.8   973.0    0.00 
 122    3:40   0.00   50.5   100    1.4    40     2.4   973.1    0.00 
 122    3:50   0.00   50.7   100    1.8    31     3.2   973.1    0.00 
 122    4:00   0.00   50.8   100    1.5    43     3.5   973.1    0.00 
 122    4:10   0.00   51.0   100    1.6    64     3.8   973.0    0.00 
 122    4:20   0.00   50.9   100    1.2    76     3.1   973.0    0.00 
 122    4:30   0.00   50.9   100    1.9    89     3.8   973.1    0.00 
 122    4:40   0.00   50.7   100    1.2    42     2.5   973.2    0.00 
 122    4:50   0.00   50.7   100    2.1    16     3.3   973.2    0.00 
 122    5:00   0.00   50.7   100    0.5   352     1.5   973.3    0.00 
 122    5:10   0.00   50.5   100    1.6     7     3.0   973.2    0.00 
 122    5:20   0.00   50.4   100    1.6    13     2.9   973.3    0.00 
 122    5:30   0.01   50.6   100    0.9    31     2.9   973.1    0.00 
 122    5:40   0.01   50.5   100    1.5    27     2.2   973.1    0.00 
 122    5:50   0.02   50.5   100    1.8    33     2.9   973.1    0.00 
 122    6:00   0.03   50.5   100    2.0    25     3.3   973.0    0.00 
 122    6:10   0.05   50.3   100    1.0    44     2.0   973.0    0.00 
 122    6:20   0.06   50.4   100    0.4   100     1.4   973.1    0.00 
 122    6:30   0.07   50.6   100    0.4   224     1.8   973.2    0.00 
 122    6:40   0.07   50.7   100    1.9   297     4.7   973.4    0.00 
 122    6:50   0.09   50.8   100    0.9   347     2.7   973.5    0.00 
 122    7:00   0.09   51.0   100    1.5   311     3.4   973.6    0.00 
 122    7:10   0.14   51.7   100    1.5   292     3.6   973.7    0.00 
 122    7:20   0.12   52.1   100    0.9   281     3.1   973.9    0.00 
 122    7:30   0.13   52.9   100    2.4   354     5.5   974.0    0.00 
 122    7:40   0.17   52.9   100    1.8    38     3.9   974.0    0.00 
 122    7:50   0.20   53.2    99    2.9   258     5.3   973.9    0.00 
 122    8:00   0.22   53.2    98    2.0   193     4.5   973.9    0.00 
 122    8:10   0.37   54.3    95    2.6   131     4.7   973.9    0.00 
 122    8:20   0.61   57.1    88    3.0   154     6.7   973.9    0.00 
 122    8:30   0.61   58.6    83    2.5   168     5.1   973.8    0.00 
 122    8:40   0.62   59.1    79    2.6   200     5.0   973.8    0.00 
 122    8:50   0.67   60.1    77    2.8   221     5.8   973.9    0.00 
 122    9:00   0.71   61.7    73    3.1   146     7.1   973.9    0.00 
 122    9:10   0.70   61.2    74    2.4   264     6.1   973.8    0.00 
 122    9:20   0.74   62.4    72    2.7   215     5.6   973.6    0.00 
 122    9:30   0.77   64.2    68    1.7   216     4.1   973.5    0.00 
 122    9:40   0.75   65.2    66    4.0   227     8.0   973.5    0.00 
 122    9:50   0.77   65.6    66    4.0   257     8.5   973.5    0.00 
 122   10:00   0.80   65.1    68    8.6   240    12.7   973.6    0.00 
 122   10:10   0.84   64.3    69    8.3   240    12.3   973.7    0.00 
 122   10:20   0.87   64.3    69    7.6   250    12.6   973.7    0.00 
 122   10:30   0.91   64.9    68    7.5   260    12.4   973.7    0.00 
 122   10:40   0.88   65.6    67    7.7   241    13.1   973.7    0.00 
 122   10:50   0.82   65.2    69    7.8   245    13.6   973.7    0.00 
 122   11:00   0.89   65.4    68    7.5   265    12.0   973.6    0.00 
 122   11:10   0.87   66.6    66    5.6   248    11.3   973.5    0.00 
 122   11:20   0.90   67.5    65    7.5   232    12.2   973.3    0.00 
 122   11:30   0.91   66.8    66    7.4   248    13.2   973.3    0.00 
 122   11:40   0.94   67.4    66    8.9   259    13.3   973.3    0.00 
 122   11:50   0.93   66.5    67    7.2   242    12.4   973.2    0.00 
 122   12:00   0.91   67.6    65    6.8   263    12.4   973.1    0.00 
 122   12:10   0.91   68.1    64    6.0   263    12.6   973.0    0.00 
 122   12:20   0.92   68.5    63    5.3   224     9.1   972.9    0.00 
 122   12:30   0.92   68.7    62    6.3   253    11.1   972.7    0.00 
 122   12:40   0.94   69.5    61    5.8   244    10.9   972.6    0.00 
 122   12:50   0.92   71.3    58    7.9   224    13.7   972.5    0.00 
 122   13:00   0.91   70.2    60    9.2   229    16.4   972.5    0.00 
 122   13:10   0.90   69.2    62    8.7   219    13.8   972.4    0.00 
 122   13:20   0.89   69.4    62    9.3   220    16.0   972.3    0.00 
 122   13:30   0.88   69.3    62    9.2   214    15.2   972.2    0.00 
 122   13:40   0.87   69.5    62    8.6   227    14.5   972.0    0.00 
 122   13:50   0.85   69.2    62    8.2   226    13.9   971.9    0.00 
 122   14:00   0.83   70.6    59    7.4   211    12.7   971.8    0.00 
 122   14:10   0.82   71.7    58    6.2   244    12.1   971.7    0.00 
 122   14:20   0.79   70.9    58    7.6   263    12.0   971.6    0.00 
 122   14:30   0.78   71.9    57    5.8   252     9.9   971.3    0.00 
 122   14:40   0.75   72.8    56    6.2   246    10.1   971.2    0.00 
 122   14:50   0.73   71.7    57    7.1   232    13.3   971.0    0.00 
 122   15:00   0.70   72.8    55    7.6   238    11.9   970.8    0.00 
 122   15:10   0.68   72.8    55    5.8   254    12.6   970.6    0.00 
 122   15:20   0.65   73.0    54    6.8   269    11.0   970.4    0.00 
 122   15:30   0.62   74.8    52    5.2   243     9.1   970.3    0.00 
 122   15:40   0.59   73.8    53    7.3   238    12.6   970.2    0.00 
 122   15:50   0.56   73.7    53    6.6   229     9.9   970.2    0.00 
 122   16:00   0.53   74.6    52    5.8   249     9.1   970.1    0.00 
 122   16:10   0.49   74.6    52    5.9   244    10.8   970.1    0.00 
 122   16:20   0.46   74.8    52    5.7   238     9.9   970.0    0.00 
 122   16:30   0.43   74.2    52    5.9   256     9.6   970.1    0.00 
 122   16:40   0.39   73.5    53    7.8   245    11.3   970.1    0.00 
 122   16:50   0.36   73.5    52    5.5   248    10.2   970.0    0.00 
 122   17:00   0.32   73.0    54    6.5   249    11.2   970.0    0.00 
 122   17:10   0.28   71.7    55    8.1   289    12.4   970.0    0.00 
 122   17:20   0.25   70.7    56    8.1   296    12.3   970.1    0.00 
 122   17:30   0.22   69.3    58    6.8   290    11.9   970.1    0.00 
 122   17:40   0.18   68.5    59    6.8   301    12.3   970.1    0.00 
 122   17:50   0.15   67.7    60    6.3   304    10.6   970.0    0.00 
 122   18:00   0.12   66.5    61    5.5   301     9.3   970.0    0.00 
 122   18:10   0.09   65.2    63    6.0   298     9.7   970.0    0.00 
 122   18:20   0.06   63.5    66    8.0   280    12.4   970.0    0.00 
 122   18:30   0.03   62.0    68    7.5   284    10.4   970.0    0.00 
 122   18:40   0.01   60.9    70    4.4   295     7.3   970.1    0.00 
 122   18:50   0.00   59.7    72    4.6   294     7.5   970.1    0.00 
 122   19:00   0.00   58.8    74    4.3   307     8.5   970.3    0.00 
 122   19:10   0.00   57.9    76    4.5   320     9.9   970.5    0.00 
 122   19:20   0.00   57.1    77    4.1   305     7.2   970.6    0.00 
 122   19:30   0.00   56.2    79    4.1   301     8.1   970.7    0.00 
 122   19:40   0.00   55.3    81    5.0   282     8.0   970.8    0.00 
 122   19:50   0.00   54.6    83    4.0   286     6.7   970.9    0.00 
 122   20:00   0.00   54.1    84    1.7   284     4.0   971.0    0.00 
 122   20:10   0.00   53.4    85    3.1   276     6.7   971.2    0.00 
 122   20:20   0.00   52.7    87    4.0   300     7.6   971.3    0.00 
 122   20:30   0.00   52.4    88    3.3   342     7.1   971.4    0.00 
 122   20:40   0.00   52.1    88    2.6   331     4.5   971.4    0.00 
 122   20:50   0.00   51.8    90    2.1   282     4.5   971.5    0.00 
 122   21:00   0.00   51.4    90    2.6   281     3.9   971.5    0.00 
 122   21:10   0.00   50.9    91    1.2   290     3.1   971.5    0.00 
 122   21:20   0.00   50.1    91    1.4   194     2.4   971.5    0.00 

Return to Sedgwick Reserve graphs page.


Western Regional Climate Center,wrcc@dri.edu